EST,Max TemperatureF,Mean TemperatureF,Min TemperatureF,Max Dew PointF,MeanDew PointF,Min DewpointF,Max Humidity, Mean Humidity, Min Humidity, Max Sea Level PressureIn, Mean Sea Level PressureIn, Min Sea Level PressureIn, Max VisibilityMiles, Mean VisibilityMiles, Min VisibilityMiles, Max Wind SpeedMPH, Mean Wind SpeedMPH, Max Gust SpeedMPH,PrecipitationIn, CloudCover, Events, WindDirDegrees
2013-1-1,30,26,21,30,27,16,100,95,80,30.02,29.97,29.92,10,8,2,12,8,16,0.02,,,295
2013-1-2,24,17,10,16,15,10,100,86,69,30.19,30.10,30.01,10,10,7,13,3,18,0.00,,,291
2013-1-3,30,16,3,23,15,3,100,86,69,30.17,30.13,30.07,10,10,7,20,4,26,0.00,,,265
2013-1-4,30,28,26,27,23,21,100,83,69,30.17,30.12,30.07,10,9,1,23,15,31,0.00,,,271
2013-1-5,32,28,24,27,24,19,100,86,75,30.34,30.23,30.12,10,10,10,16,10,23,0.00,,,264
2013-1-6,35,32,30,34,30,27,100,89,81,30.15,30.05,29.96,10,10,7,13,7,20,0.00,,,250
2013-1-7,33,25,17,32,27,18,100,95,80,30.42,30.32,30.17,10,8,4,12,6,17,0.00,,,276
2013-1-8,42,27,12,28,22,12,100,89,57,30.34,30.30,30.23,10,9,5,10,2,,0.00,,,194
2013-1-9,42,32,21,43,33,21,100,94,75,30.43,30.28,30.20,10,10,10,17,4,23,0.00,,,254
2013-1-10,41,32,24,30,29,25,100,78,53,30.58,30.48,30.33,10,10,5,13,4,18,0.00,,,102
2013-1-11,44,42,39,45,37,27,100,82,53,30.32,30.11,29.99,10,7,0,17,9,25,0.28,,,145
2013-1-12,59,50,41,59,50,41,100,99,88,30.10,30.06,29.99,10,5,0,10,1,,0.00,,,200
2013-1-13,68,62,55,57,55,54,100,85,68,29.99,29.92,29.88,10,10,3,23,7,31,0.23,,,211
2013-1-14,57,44,30,57,34,27,100,87,65,30.34,30.21,29.90,10,10,7,23,6,36,0.06,,,320
2013-1-15,33,28,23,30,27,23,100,90,75,30.35,30.24,30.07,10,9,1,7,2,,0.05,,,67
2013-1-16,33,32,30,34,32,30,100,100,93,30.05,29.93,29.85,10,7,1,15,6,21,0.17,,,245
2013-1-17,32,31,30,32,30,28,100,95,93,30.14,30.06,29.97,10,10,4,13,9,21,0.00,,,267
2013-1-18,30,22,15,28,15,9,100,69,55,30.43,30.31,30.09,10,10,1,21,11,29,0.00,,,278
2013-1-19,50,41,32,23,19,12,51,40,30,30.22,30.04,29.81,10,10,10,21,13,29,0.00,,,240
2013-1-20,44,32,19,32,20,12,80,60,44,30.09,29.93,29.74,10,10,10,30,16,40,0.00,,,284
2013-1-21,23,16,10,21,16,1,100,87,67,30.05,29.95,29.84,10,7,0,14,5,26,0.00,,,281
2013-1-22,10,6,3,7,1,-2,100,75,57,30.19,30.10,29.96,10,9,2,20,12,30,0.00,,,285
2013-1-23,12,6,1,9,3,0,100,85,67,30.21,30.14,30.02,10,9,4,15,7,20,0.00,,,268
2013-1-24,21,12,3,10,5,-2,100,79,39,30.47,30.26,29.99,10,8,1,14,3,21,0.00,,,322
2013-1-25,15,9,3,16,10,1,100,91,67,30.45,30.16,29.97,10,6,0,10,2,,0.04,,,129
2013-1-26,24,20,15,25,20,16,100,96,80,30.39,30.17,30.02,10,6,1,12,6,,0.00,,,289
2013-1-27,32,19,6,27,17,7,100,82,55,30.50,30.42,30.31,10,9,0,7,1,,0.00,,,132
2013-1-28,48,39,30,48,39,28,100,100,93,30.32,30.10,29.99,10,4,1,13,6,20,0.57,,,228
2013-1-29,60,53,46,57,51,46,100,95,77,30.05,29.98,29.84,10,5,0,18,8,28,0.05,,,227
2013-1-30,66,58,50,59,54,50,100,89,68,29.82,29.52,29.23,10,10,4,25,10,39,0.90,,,195
2013-1-31,48,34,21,48,24,12,100,85,63,29.78,29.57,29.19,10,8,0,33,20,41,0.13,,,278